Time,TemperatureF,DewpointF,PressureIn,WindDirection,WindDirectionDegrees,WindSpeedMPH,WindSpeedGustMPH,Humidity,HourlyPrecipIn,Conditions,Clouds,dailyrainin,SoftwareType,DateUTC
2013-04-24 00:10:00,46.9,39.0,30.06,WNW,283,12.0,14.0,74,0.00,,,0.00,weatherlink.com 1.10,2013-04-24 05:10:00,
2013-04-24 00:25:00,46.6,39.0,30.07,North,349,4.0,14.0,75,0.00,,,0.00,weatherlink.com 1.10,2013-04-24 05:25:00,
2013-04-24 00:40:00,46.3,39.0,30.07,NW,311,4.0,17.0,76,0.00,,,0.00,weatherlink.com 1.10,2013-04-24 05:40:00,
2013-04-24 00:55:00,46.1,39.0,30.07,NNW,341,5.0,18.0,76,0.00,,,0.00,weatherlink.com 1.10,2013-04-24 05:55:00,
2013-04-24 01:10:00,45.8,39.0,30.08,NW,311,9.0,16.0,76,0.00,,,0.00,weatherlink.com 1.10,2013-04-24 06:10:00,
2013-04-24 01:25:00,45.1,39.0,30.08,North,349,5.0,22.0,78,0.00,,,0.00,weatherlink.com 1.10,2013-04-24 06:25:00,
2013-04-24 01:49:00,44.6,38.0,30.09,NNW,327,12.0,21.0,78,0.00,,,0.00,weatherlink.com 1.10,2013-04-24 06:49:00,
2013-04-24 01:55:00,44.4,38.0,30.09,NW,305,10.0,22.0,78,0.00,,,0.00,weatherlink.com 1.10,2013-04-24 06:55:00,
2013-04-24 02:10:00,44.1,38.0,30.10,WNW,295,12.0,16.0,79,0.00,,,0.00,weatherlink.com 1.10,2013-04-24 07:10:00,
2013-04-24 02:25:00,43.1,38.0,30.10,WNW,302,17.0,20.0,81,0.00,,,0.00,weatherlink.com 1.10,2013-04-24 07:25:00,
2013-04-24 02:40:00,42.7,38.0,30.10,NNW,327,7.0,18.0,82,0.00,,,0.00,weatherlink.com 1.10,2013-04-24 07:40:00,
2013-04-24 02:55:00,42.7,38.0,30.11,NW,321,6.0,15.0,82,0.00,,,0.00,weatherlink.com 1.10,2013-04-24 07:55:00,
2013-04-24 03:11:00,42.5,37.0,30.11,NNW,336,11.0,23.0,80,0.00,,,0.00,weatherlink.com 1.10,2013-04-24 08:11:00,
2013-04-24 03:26:00,42.3,37.0,30.12,WNW,302,14.0,21.0,80,0.00,,,0.00,weatherlink.com 1.10,2013-04-24 08:26:00,
2013-04-24 03:41:00,42.0,36.0,30.13,NNW,337,6.0,18.0,80,0.00,,,0.00,weatherlink.com 1.10,2013-04-24 08:41:00,
2013-04-24 03:56:00,41.7,36.0,30.12,NW,318,9.0,22.0,80,0.00,,,0.00,weatherlink.com 1.10,2013-04-24 08:56:00,
2013-04-24 04:11:00,41.5,36.0,30.12,NNW,335,11.0,15.0,80,0.00,,,0.00,weatherlink.com 1.10,2013-04-24 09:11:00,
2013-04-24 04:26:00,41.5,36.0,30.12,NNE,17,9.0,21.0,80,0.00,,,0.00,weatherlink.com 1.10,2013-04-24 09:26:00,
2013-04-24 04:41:00,41.8,36.0,30.12,NW,314,4.0,13.0,80,0.00,,,0.00,weatherlink.com 1.10,2013-04-24 09:41:00,
2013-04-24 04:56:00,42.0,36.0,30.12,NNE,20,6.0,14.0,79,0.00,,,0.00,weatherlink.com 1.10,2013-04-24 09:56:00,
2013-04-24 05:11:00,42.2,35.0,30.12,WNW,302,7.0,14.0,77,0.00,,,0.00,weatherlink.com 1.10,2013-04-24 10:11:00,
2013-04-24 05:26:00,42.2,35.0,30.12,WNW,294,9.0,23.0,76,0.00,,,0.00,weatherlink.com 1.10,2013-04-24 10:26:00,
2013-04-24 05:41:00,42.0,35.0,30.14,NNE,27,7.0,14.0,75,0.00,,,0.00,weatherlink.com 1.10,2013-04-24 10:41:00,
2013-04-24 05:56:00,41.7,34.0,30.14,NW,312,11.0,20.0,74,0.00,,,0.00,weatherlink.com 1.10,2013-04-24 10:56:00,
2013-04-24 06:11:00,41.6,34.0,30.14,NNE,20,2.0,17.0,73,0.00,,,0.00,weatherlink.com 1.10,2013-04-24 11:11:00,
2013-04-24 06:26:00,41.5,33.0,30.15,NW,306,3.0,14.0,72,0.00,,,0.00,weatherlink.com 1.10,2013-04-24 11:26:00,
2013-04-24 06:41:00,41.3,33.0,30.14,NW,311,9.0,16.0,72,0.00,,,0.00,weatherlink.com 1.10,2013-04-24 11:41:00,
2013-04-24 06:56:00,41.3,33.0,30.15,WNW,291,7.0,16.0,72,0.00,,,0.00,weatherlink.com 1.10,2013-04-24 11:56:00,
2013-04-24 07:11:00,41.5,33.0,30.17,WSW,252,1.0,17.0,72,0.00,,,0.00,weatherlink.com 1.10,2013-04-24 12:11:00,
2013-04-24 07:26:00,41.7,33.0,30.18,NW,306,9.0,12.0,71,0.00,,,0.00,weatherlink.com 1.10,2013-04-24 12:26:00,
2013-04-24 07:41:00,41.7,33.0,30.19,NW,304,6.0,16.0,71,0.00,,,0.00,weatherlink.com 1.10,2013-04-24 12:41:00,
2013-04-24 07:56:00,41.6,32.0,30.18,NNW,346,12.0,18.0,70,0.00,,,0.00,weatherlink.com 1.10,2013-04-24 12:56:00,
2013-04-24 08:14:00,41.8,33.0,30.18,WNW,288,8.0,21.0,70,0.00,,,0.00,weatherlink.com 1.10,2013-04-24 13:14:00,
2013-04-24 08:26:00,41.9,33.0,30.19,WSW,250,10.0,18.0,70,0.00,,,0.00,weatherlink.com 1.10,2013-04-24 13:26:00,
2013-04-24 08:41:00,42.1,33.0,30.21,NW,310,3.0,16.0,69,0.00,,,0.00,weatherlink.com 1.10,2013-04-24 13:41:00,
2013-04-24 08:56:00,41.8,32.0,30.20,NNW,332,13.0,21.0,69,0.00,,,0.00,weatherlink.com 1.10,2013-04-24 13:56:00,
2013-04-24 09:11:00,42.5,33.0,30.20,West,277,12.0,17.0,68,0.00,,,0.00,weatherlink.com 1.10,2013-04-24 14:11:00,
2013-04-24 09:41:00,43.0,32.0,30.21,NNE,25,7.0,17.0,65,0.00,,,0.00,weatherlink.com 1.10,2013-04-24 14:41:00,
2013-04-24 09:56:00,42.5,31.0,30.23,NW,312,16.0,21.0,65,0.00,,,0.00,weatherlink.com 1.10,2013-04-24 14:56:00,
2013-04-24 10:11:00,43.1,31.0,30.22,NNW,331,10.0,22.0,63,0.00,,,0.00,weatherlink.com 1.10,2013-04-24 15:11:00,
2013-04-24 10:26:00,44.1,32.0,30.22,NW,323,5.0,19.0,63,0.00,,,0.00,weatherlink.com 1.10,2013-04-24 15:26:00,
2013-04-24 10:41:00,44.7,32.0,30.22,NW,312,16.0,17.0,62,0.00,,,0.00,weatherlink.com 1.10,2013-04-24 15:41:00,
2013-04-24 10:56:00,45.2,32.0,30.23,NNW,347,6.0,17.0,60,0.00,,,0.00,weatherlink.com 1.10,2013-04-24 15:56:00,
2013-04-24 11:11:00,45.7,32.0,30.23,NNE,32,10.0,20.0,60,0.00,,,0.00,weatherlink.com 1.10,2013-04-24 16:11:00,
2013-04-24 11:26:00,46.2,32.0,30.23,NNW,335,11.0,17.0,59,0.00,,,0.00,weatherlink.com 1.10,2013-04-24 16:26:00,
2013-04-24 11:41:00,46.6,32.0,30.23,NW,320,8.0,18.0,58,0.00,,,0.00,weatherlink.com 1.10,2013-04-24 16:41:00,
2013-04-24 11:57:00,47.5,33.0,30.23,NNW,338,9.0,18.0,57,0.00,,,0.00,weatherlink.com 1.10,2013-04-24 16:57:00,
2013-04-24 12:12:00,48.5,33.0,30.23,NNW,343,11.0,21.0,55,0.00,,,0.00,weatherlink.com 1.10,2013-04-24 17:12:00,
2013-04-24 12:27:00,49.7,33.0,30.22,NW,306,11.0,23.0,52,0.00,,,0.00,weatherlink.com 1.10,2013-04-24 17:27:00,
2013-04-24 12:42:00,52.1,34.0,30.22,North,352,4.0,18.0,51,0.00,,,0.00,weatherlink.com 1.10,2013-04-24 17:42:00,
2013-04-24 12:57:00,50.9,32.0,30.21,WNW,303,10.0,19.0,49,0.00,,,0.00,weatherlink.com 1.10,2013-04-24 17:57:00,
2013-04-24 13:12:00,51.6,33.0,30.20,NW,306,9.0,15.0,49,0.00,,,0.00,weatherlink.com 1.10,2013-04-24 18:12:00,
2013-04-24 13:27:00,52.1,32.0,30.20,NNW,331,6.0,20.0,47,0.00,,,0.00,weatherlink.com 1.10,2013-04-24 18:27:00,
2013-04-24 13:42:00,52.2,32.0,30.20,NNW,327,6.0,16.0,47,0.00,,,0.00,weatherlink.com 1.10,2013-04-24 18:42:00,
2013-04-24 13:57:00,53.4,33.0,30.20,North,6,7.0,14.0,46,0.00,,,0.00,weatherlink.com 1.10,2013-04-24 18:57:00,
2013-04-24 14:12:00,54.6,32.0,30.20,NW,323,8.0,15.0,43,0.00,,,0.00,weatherlink.com 1.10,2013-04-24 19:12:00,
2013-04-24 14:27:00,54.5,33.0,30.20,NW,315,9.0,12.0,44,0.00,,,0.00,weatherlink.com 1.10,2013-04-24 19:27:00,
2013-04-24 14:42:00,54.5,33.0,30.19,NNE,15,6.0,16.0,44,0.00,,,0.00,weatherlink.com 1.10,2013-04-24 19:42:00,
2013-04-24 14:57:00,57.0,34.0,30.19,WNW,302,8.0,14.0,42,0.00,,,0.00,weatherlink.com 1.10,2013-04-24 19:57:00,
2013-04-24 15:12:00,56.7,34.0,30.18,NW,305,8.0,16.0,42,0.00,,,0.00,weatherlink.com 1.10,2013-04-24 20:12:00,
2013-04-24 15:27:00,57.5,34.0,30.18,NW,326,6.0,12.0,41,0.00,,,0.00,weatherlink.com 1.10,2013-04-24 20:27:00,
2013-04-24 15:42:00,58.2,32.0,30.18,NNW,338,7.0,15.0,38,0.00,,,0.00,weatherlink.com 1.10,2013-04-24 20:42:00,
2013-04-24 15:57:00,57.8,33.0,30.18,NNW,333,6.0,11.0,40,0.00,,,0.00,weatherlink.com 1.10,2013-04-24 20:57:00,
2013-04-24 16:15:00,57.9,33.0,30.17,NNE,19,4.0,13.0,39,0.00,,,0.00,weatherlink.com 1.10,2013-04-24 21:15:00,
2013-04-24 16:27:00,57.8,33.0,30.17,NNE,20,5.0,10.0,40,0.00,,,0.00,weatherlink.com 1.10,2013-04-24 21:27:00,
2013-04-24 16:42:00,57.8,33.0,30.17,NNW,341,4.0,8.0,40,0.00,,,0.00,weatherlink.com 1.10,2013-04-24 21:42:00,
2013-04-24 16:57:00,58.0,34.0,30.17,NNW,338,3.0,9.0,40,0.00,,,0.00,weatherlink.com 1.10,2013-04-24 21:57:00,
2013-04-24 17:12:00,58.2,33.0,30.17,NNE,13,6.0,11.0,39,0.00,,,0.00,weatherlink.com 1.10,2013-04-24 22:12:00,
2013-04-24 17:27:00,58.0,34.0,30.16,NE,52,3.0,9.0,40,0.00,,,0.00,weatherlink.com 1.10,2013-04-24 22:27:00,
2013-04-24 17:42:00,57.9,34.0,30.16,NE,53,7.0,8.0,41,0.00,,,0.00,weatherlink.com 1.10,2013-04-24 22:42:00,
2013-04-24 17:57:00,57.8,33.0,30.17,NNW,330,2.0,6.0,40,0.00,,,0.00,weatherlink.com 1.10,2013-04-24 22:57:00,
2013-04-24 18:12:00,57.9,33.0,30.16,NNE,12,7.0,10.0,39,0.00,,,0.00,weatherlink.com 1.10,2013-04-24 23:12:00,
2013-04-24 18:27:00,58.0,34.0,30.16,North,349,7.0,8.0,40,0.00,,,0.00,weatherlink.com 1.10,2013-04-24 23:27:00,
2013-04-24 18:42:00,57.9,34.0,30.16,WNW,285,3.0,7.0,40,0.00,,,0.00,weatherlink.com 1.10,2013-04-24 23:42:00,
2013-04-24 18:57:00,57.8,34.0,30.17,NNW,336,7.0,8.0,41,0.00,,,0.00,weatherlink.com 1.10,2013-04-24 23:57:00,
2013-04-24 19:12:00,57.8,34.0,30.17,NNE,23,2.0,7.0,41,0.00,,,0.00,weatherlink.com 1.10,2013-04-25 00:12:00,
2013-04-24 19:27:00,57.9,34.0,30.17,NNW,333,2.0,6.0,40,0.00,,,0.00,weatherlink.com 1.10,2013-04-25 00:27:00,
2013-04-24 19:42:00,57.6,34.0,30.17,NNW,328,3.0,9.0,41,0.00,,,0.00,weatherlink.com 1.10,2013-04-25 00:42:00,
2013-04-24 19:57:00,56.9,34.0,30.18,East,100,2.0,9.0,42,0.00,,,0.00,weatherlink.com 1.10,2013-04-25 00:57:00,
2013-04-24 20:14:00,56.0,34.0,30.18,NE,48,0.0,3.0,44,0.00,,,0.00,weatherlink.com 1.10,2013-04-25 01:14:00,
2013-04-24 20:27:00,55.2,34.0,30.18,NNE,18,1.0,2.0,45,0.00,,,0.00,weatherlink.com 1.10,2013-04-25 01:27:00,
2013-04-24 20:42:00,54.2,35.0,30.19,North,358,0.0,0.0,48,0.00,,,0.00,weatherlink.com 1.10,2013-04-25 01:42:00,
2013-04-24 20:57:00,53.7,35.0,30.20,North,359,0.0,1.0,50,0.00,,,0.00,weatherlink.com 1.10,2013-04-25 01:57:00,
2013-04-24 21:34:00,50.1,36.0,30.22,North,357,0.0,1.0,59,0.00,,,0.00,weatherlink.com 1.10,2013-04-25 02:34:00,
2013-04-24 21:42:00,49.9,36.0,30.22,North,357,0.0,0.0,60,0.00,,,0.00,weatherlink.com 1.10,2013-04-25 02:42:00,
2013-04-24 21:57:00,50.8,36.0,30.23,North,351,2.0,2.0,57,0.00,,,0.00,weatherlink.com 1.10,2013-04-25 02:57:00,
2013-04-24 22:27:00,54.9,36.0,30.23,NNE,25,4.0,7.0,49,0.00,,,0.00,weatherlink.com 1.10,2013-04-25 03:27:00,
2013-04-24 22:42:00,55.1,36.0,30.23,ENE,65,5.0,6.0,49,0.00,,,0.00,weatherlink.com 1.10,2013-04-25 03:42:00,
2013-04-24 22:57:00,55.2,36.0,30.25,North,360,2.0,4.0,49,0.00,,,0.00,weatherlink.com 1.10,2013-04-25 03:57:00,
2013-04-24 23:12:00,55.1,37.0,30.24,NNE,32,4.0,7.0,50,0.00,,,0.00,weatherlink.com 1.10,2013-04-25 04:12:00,
2013-04-24 23:27:00,55.1,37.0,30.25,NNE,24,0.0,6.0,50,0.00,,,0.00,weatherlink.com 1.10,2013-04-25 04:27:00,
2013-04-24 23:43:00,55.0,37.0,30.25,NE,34,0.0,5.0,52,0.00,,,0.00,weatherlink.com 1.10,2013-04-25 04:43:00,
2013-04-24 23:57:00,54.9,37.0,30.25,NE,41,3.0,5.0,52,0.00,,,0.00,weatherlink.com 1.10,2013-04-25 04:57:00,